sensor_id;sensor_type;location;lat;lon;timestamp;temperature;humidity
11989;DHT22;6054;50.966;7.094;2022-10-16T00:01:25;22.80;57.00
11989;DHT22;6054;50.966;7.094;2022-10-16T00:03:52;22.80;57.00
11989;DHT22;6054;50.966;7.094;2022-10-16T00:06:20;22.80;56.60
11989;DHT22;6054;50.966;7.094;2022-10-16T00:08:47;22.80;56.90
11989;DHT22;6054;50.966;7.094;2022-10-16T00:11:16;23.10;57.10
11989;DHT22;6054;50.966;7.094;2022-10-16T00:13:46;22.90;56.90
11989;DHT22;6054;50.966;7.094;2022-10-16T00:16:14;22.70;56.80
11989;DHT22;6054;50.966;7.094;2022-10-16T00:18:41;22.70;56.80
11989;DHT22;6054;50.966;7.094;2022-10-16T00:21:11;23.00;56.80
11989;DHT22;6054;50.966;7.094;2022-10-16T00:23:38;22.70;56.80
11989;DHT22;6054;50.966;7.094;2022-10-16T00:26:07;22.90;56.50
11989;DHT22;6054;50.966;7.094;2022-10-16T00:28:34;22.70;56.80
11989;DHT22;6054;50.966;7.094;2022-10-16T00:31:05;22.70;56.70
11989;DHT22;6054;50.966;7.094;2022-10-16T00:33:32;22.70;56.80
11989;DHT22;6054;50.966;7.094;2022-10-16T00:36:00;22.70;56.60
11989;DHT22;6054;50.966;7.094;2022-10-16T00:38:27;22.60;56.60
11989;DHT22;6054;50.966;7.094;2022-10-16T00:40:54;22.60;56.20
11989;DHT22;6054;50.966;7.094;2022-10-16T00:43:36;22.60;56.30
11989;DHT22;6054;50.966;7.094;2022-10-16T00:46:07;22.60;56.80
11989;DHT22;6054;50.966;7.094;2022-10-16T00:48:36;22.60;56.70
11989;DHT22;6054;50.966;7.094;2022-10-16T00:51:04;22.60;56.20
11989;DHT22;6054;50.966;7.094;2022-10-16T00:53:32;22.60;56.60
11989;DHT22;6054;50.966;7.094;2022-10-16T00:56:01;22.60;56.70
11989;DHT22;6054;50.966;7.094;2022-10-16T00:58:28;22.60;56.50
11989;DHT22;6054;50.966;7.094;2022-10-16T01:00:54;22.80;56.10
11989;DHT22;6054;50.966;7.094;2022-10-16T01:03:25;22.60;56.00
11989;DHT22;6054;50.966;7.094;2022-10-16T01:06:01;22.50;56.40
11989;DHT22;6054;50.966;7.094;2022-10-16T01:08:38;22.50;56.50
11989;DHT22;6054;50.966;7.094;2022-10-16T01:11:12;22.50;56.50
11989;DHT22;6054;50.966;7.094;2022-10-16T01:13:42;22.80;56.80
11989;DHT22;6054;50.966;7.094;2022-10-16T01:16:14;22.50;56.30
11989;DHT22;6054;50.966;7.094;2022-10-16T01:18:46;22.50;56.30
11989;DHT22;6054;50.966;7.094;2022-10-16T01:21:18;22.60;56.40
11989;DHT22;6054;50.966;7.094;2022-10-16T01:23:54;22.50;56.40
11989;DHT22;6054;50.966;7.094;2022-10-16T01:26:37;22.50;56.20
11989;DHT22;6054;50.966;7.094;2022-10-16T01:29:13;22.40;56.50
11989;DHT22;6054;50.966;7.094;2022-10-16T01:31:45;22.70;56.50
11989;DHT22;6054;50.966;7.094;2022-10-16T01:34:17;22.40;56.20
11989;DHT22;6054;50.966;7.094;2022-10-16T01:36:49;22.40;56.20
11989;DHT22;6054;50.966;7.094;2022-10-16T01:39:20;22.40;56.10
11989;DHT22;6054;50.966;7.094;2022-10-16T01:41:51;22.40;56.10
11989;DHT22;6054;50.966;7.094;2022-10-16T01:44:24;22.30;55.90
11989;DHT22;6054;50.966;7.094;2022-10-16T01:46:53;22.50;56.20
11989;DHT22;6054;50.966;7.094;2022-10-16T01:49:21;22.50;56.10
11989;DHT22;6054;50.966;7.094;2022-10-16T01:51:52;22.30;55.90
11989;DHT22;6054;50.966;7.094;2022-10-16T01:54:20;22.30;55.80
11989;DHT22;6054;50.966;7.094;2022-10-16T01:56:50;22.30;56.00
11989;DHT22;6054;50.966;7.094;2022-10-16T01:59:20;22.30;55.80
11989;DHT22;6054;50.966;7.094;2022-10-16T02:01:51;22.20;55.90
11989;DHT22;6054;50.966;7.094;2022-10-16T02:04:21;22.20;55.90
11989;DHT22;6054;50.966;7.094;2022-10-16T02:06:50;22.20;55.70
11989;DHT22;6054;50.966;7.094;2022-10-16T02:09:17;22.20;55.30
11989;DHT22;6054;50.966;7.094;2022-10-16T02:11:44;22.20;55.10
11989;DHT22;6054;50.966;7.094;2022-10-16T02:14:11;22.30;55.40
11989;DHT22;6054;50.966;7.094;2022-10-16T02:16:40;22.10;55.60
11989;DHT22;6054;50.966;7.094;2022-10-16T02:19:09;22.20;56.10
11989;DHT22;6054;50.966;7.094;2022-10-16T02:21:39;22.10;55.50
11989;DHT22;6054;50.966;7.094;2022-10-16T02:24:13;22.10;56.20
11989;DHT22;6054;50.966;7.094;2022-10-16T02:26:47;22.30;56.40
11989;DHT22;6054;50.966;7.094;2022-10-16T02:29:19;22.10;56.10
11989;DHT22;6054;50.966;7.094;2022-10-16T02:31:49;22.10;56.10
11989;DHT22;6054;50.966;7.094;2022-10-16T02:34:19;22.10;56.20
11989;DHT22;6054;50.966;7.094;2022-10-16T02:36:48;22.20;56.30
11989;DHT22;6054;50.966;7.094;2022-10-16T02:39:17;22.10;56.20
11989;DHT22;6054;50.966;7.094;2022-10-16T02:41:44;22.10;56.40
11989;DHT22;6054;50.966;7.094;2022-10-16T02:44:11;22.10;55.80
11989;DHT22;6054;50.966;7.094;2022-10-16T02:46:37;22.10;55.90
11989;DHT22;6054;50.966;7.094;2022-10-16T02:49:04;22.10;56.00
11989;DHT22;6054;50.966;7.094;2022-10-16T02:51:32;22.30;56.10
11989;DHT22;6054;50.966;7.094;2022-10-16T02:53:59;22.10;55.90
11989;DHT22;6054;50.966;7.094;2022-10-16T02:56:26;22.30;56.10
11989;DHT22;6054;50.966;7.094;2022-10-16T02:58:52;22.10;55.80
11989;DHT22;6054;50.966;7.094;2022-10-16T03:01:19;22.10;55.70
11989;DHT22;6054;50.966;7.094;2022-10-16T03:03:46;22.20;56.10
11989;DHT22;6054;50.966;7.094;2022-10-16T03:06:13;22.20;56.20
11989;DHT22;6054;50.966;7.094;2022-10-16T03:08:41;22.20;56.20
11989;DHT22;6054;50.966;7.094;2022-10-16T03:11:08;22.20;56.10
11989;DHT22;6054;50.966;7.094;2022-10-16T03:13:35;22.20;56.30
11989;DHT22;6054;50.966;7.094;2022-10-16T03:16:01;22.20;56.20
11989;DHT22;6054;50.966;7.094;2022-10-16T03:18:28;22.20;56.30
11989;DHT22;6054;50.966;7.094;2022-10-16T03:20:55;22.20;56.30
11989;DHT22;6054;50.966;7.094;2022-10-16T03:23:21;22.20;56.40
11989;DHT22;6054;50.966;7.094;2022-10-16T03:25:50;22.20;56.10
11989;DHT22;6054;50.966;7.094;2022-10-16T03:28:16;22.10;56.10
11989;DHT22;6054;50.966;7.094;2022-10-16T03:30:43;22.10;56.00
11989;DHT22;6054;50.966;7.094;2022-10-16T03:33:10;22.20;56.20
11989;DHT22;6054;50.966;7.094;2022-10-16T03:35:37;22.10;56.00
11989;DHT22;6054;50.966;7.094;2022-10-16T03:38:04;22.10;56.40
11989;DHT22;6054;50.966;7.094;2022-10-16T03:40:31;22.10;55.80
11989;DHT22;6054;50.966;7.094;2022-10-16T03:42:59;22.10;55.90
11989;DHT22;6054;50.966;7.094;2022-10-16T03:45:26;22.00;55.50
11989;DHT22;6054;50.966;7.094;2022-10-16T03:47:53;22.10;55.90
11989;DHT22;6054;50.966;7.094;2022-10-16T03:50:20;22.10;56.10
11989;DHT22;6054;50.966;7.094;2022-10-16T03:52:47;22.00;56.00
11989;DHT22;6054;50.966;7.094;2022-10-16T03:55:13;22.10;56.10
11989;DHT22;6054;50.966;7.094;2022-10-16T03:57:40;22.10;56.10
11989;DHT22;6054;50.966;7.094;2022-10-16T04:00:10;22.10;56.10
11989;DHT22;6054;50.966;7.094;2022-10-16T04:02:37;22.00;56.60
11989;DHT22;6054;50.966;7.094;2022-10-16T04:05:04;22.00;56.10
11989;DHT22;6054;50.966;7.094;2022-10-16T04:07:31;22.00;56.40
11989;DHT22;6054;50.966;7.094;2022-10-16T04:09:58;22.00;55.90
11989;DHT22;6054;50.966;7.094;2022-10-16T04:12:25;22.00;56.30
11989;DHT22;6054;50.966;7.094;2022-10-16T04:14:52;22.00;56.10
11989;DHT22;6054;50.966;7.094;2022-10-16T04:17:20;22.00;56.10
11989;DHT22;6054;50.966;7.094;2022-10-16T04:19:47;22.00;56.40
11989;DHT22;6054;50.966;7.094;2022-10-16T04:22:14;22.00;56.20
11989;DHT22;6054;50.966;7.094;2022-10-16T04:24:40;22.00;56.20
11989;DHT22;6054;50.966;7.094;2022-10-16T04:27:07;22.00;56.70
11989;DHT22;6054;50.966;7.094;2022-10-16T04:29:34;22.00;56.10
11989;DHT22;6054;50.966;7.094;2022-10-16T04:32:00;22.20;56.20
11989;DHT22;6054;50.966;7.094;2022-10-16T04:34:29;22.00;56.20
11989;DHT22;6054;50.966;7.094;2022-10-16T04:36:55;22.00;56.20
11989;DHT22;6054;50.966;7.094;2022-10-16T04:39:22;22.00;56.10
11989;DHT22;6054;50.966;7.094;2022-10-16T04:41:49;22.20;56.40
11989;DHT22;6054;50.966;7.094;2022-10-16T04:44:16;22.30;56.20
11989;DHT22;6054;50.966;7.094;2022-10-16T04:46:42;22.00;56.20
11989;DHT22;6054;50.966;7.094;2022-10-16T04:49:09;22.20;56.00
11989;DHT22;6054;50.966;7.094;2022-10-16T04:51:37;22.20;56.20
11989;DHT22;6054;50.966;7.094;2022-10-16T04:54:04;22.00;56.00
11989;DHT22;6054;50.966;7.094;2022-10-16T04:56:31;22.00;56.00
11989;DHT22;6054;50.966;7.094;2022-10-16T04:58:58;22.00;56.00
11989;DHT22;6054;50.966;7.094;2022-10-16T05:01:24;22.00;56.00
11989;DHT22;6054;50.966;7.094;2022-10-16T05:03:51;22.00;56.10
11989;DHT22;6054;50.966;7.094;2022-10-16T05:06:18;21.90;55.70
11989;DHT22;6054;50.966;7.094;2022-10-16T05:08:46;21.90;55.90
11989;DHT22;6054;50.966;7.094;2022-10-16T05:11:13;21.90;55.70
11989;DHT22;6054;50.966;7.094;2022-10-16T05:13:39;21.90;55.80
11989;DHT22;6054;50.966;7.094;2022-10-16T05:16:06;21.90;56.00
11989;DHT22;6054;50.966;7.094;2022-10-16T05:18:33;21.90;56.00
11989;DHT22;6054;50.966;7.094;2022-10-16T05:21:00;21.90;55.80
11989;DHT22;6054;50.966;7.094;2022-10-16T05:23:26;21.90;55.90
11989;DHT22;6054;50.966;7.094;2022-10-16T05:25:56;21.90;55.90
11989;DHT22;6054;50.966;7.094;2022-10-16T05:28:24;21.90;56.10
11989;DHT22;6054;50.966;7.094;2022-10-16T05:30:50;21.90;55.80
11989;DHT22;6054;50.966;7.094;2022-10-16T05:33:19;21.90;55.60
11989;DHT22;6054;50.966;7.094;2022-10-16T05:35:45;21.90;56.40
11989;DHT22;6054;50.966;7.094;2022-10-16T05:38:13;21.90;55.80
11989;DHT22;6054;50.966;7.094;2022-10-16T05:40:39;21.90;56.00
11989;DHT22;6054;50.966;7.094;2022-10-16T05:43:07;21.90;55.80
11989;DHT22;6054;50.966;7.094;2022-10-16T05:45:34;21.90;55.90
11989;DHT22;6054;50.966;7.094;2022-10-16T05:48:01;21.90;55.70
11989;DHT22;6054;50.966;7.094;2022-10-16T05:50:28;21.90;55.90
11989;DHT22;6054;50.966;7.094;2022-10-16T05:52:54;21.90;55.80
11989;DHT22;6054;50.966;7.094;2022-10-16T05:55:21;21.90;55.70
11989;DHT22;6054;50.966;7.094;2022-10-16T05:57:48;21.90;55.80
11989;DHT22;6054;50.966;7.094;2022-10-16T06:00:16;21.90;55.60
11989;DHT22;6054;50.966;7.094;2022-10-16T06:02:43;21.90;55.50
11989;DHT22;6054;50.966;7.094;2022-10-16T06:05:10;21.80;55.60
11989;DHT22;6054;50.966;7.094;2022-10-16T06:07:37;21.80;55.60
11989;DHT22;6054;50.966;7.094;2022-10-16T06:10:05;22.00;55.50
11989;DHT22;6054;50.966;7.094;2022-10-16T06:12:32;21.80;56.00
11989;DHT22;6054;50.966;7.094;2022-10-16T06:14:58;21.80;56.20
11989;DHT22;6054;50.966;7.094;2022-10-16T06:17:26;22.00;55.60
11989;DHT22;6054;50.966;7.094;2022-10-16T06:19:53;21.80;55.40
11989;DHT22;6054;50.966;7.094;2022-10-16T06:22:20;21.80;55.40
11989;DHT22;6054;50.966;7.094;2022-10-16T06:24:46;22.00;55.70
11989;DHT22;6054;50.966;7.094;2022-10-16T06:27:15;21.70;55.40
11989;DHT22;6054;50.966;7.094;2022-10-16T06:29:41;21.70;55.30
11989;DHT22;6054;50.966;7.094;2022-10-16T06:32:10;21.70;55.60
11989;DHT22;6054;50.966;7.094;2022-10-16T06:34:38;21.90;55.70
11989;DHT22;6054;50.966;7.094;2022-10-16T06:37:06;21.90;55.80
11989;DHT22;6054;50.966;7.094;2022-10-16T06:39:33;21.70;55.30
11989;DHT22;6054;50.966;7.094;2022-10-16T06:41:59;22.00;55.80
11989;DHT22;6054;50.966;7.094;2022-10-16T06:44:26;21.70;55.60
11989;DHT22;6054;50.966;7.094;2022-10-16T06:46:53;21.70;55.60
11989;DHT22;6054;50.966;7.094;2022-10-16T06:49:20;21.70;56.00
11989;DHT22;6054;50.966;7.094;2022-10-16T06:51:49;21.70;55.90
11989;DHT22;6054;50.966;7.094;2022-10-16T06:54:16;21.70;55.90
11989;DHT22;6054;50.966;7.094;2022-10-16T06:56:43;21.80;56.00
11989;DHT22;6054;50.966;7.094;2022-10-16T06:59:10;21.80;56.10
11989;DHT22;6054;50.966;7.094;2022-10-16T07:01:36;21.80;56.40
11989;DHT22;6054;50.966;7.094;2022-10-16T07:04:03;21.80;56.60
11989;DHT22;6054;50.966;7.094;2022-10-16T07:06:32;21.90;56.60
11989;DHT22;6054;50.966;7.094;2022-10-16T07:09:03;21.90;57.00
11989;DHT22;6054;50.966;7.094;2022-10-16T07:11:31;21.90;57.10
11989;DHT22;6054;50.966;7.094;2022-10-16T07:13:58;21.90;57.00
11989;DHT22;6054;50.966;7.094;2022-10-16T07:16:26;21.90;56.80
11989;DHT22;6054;50.966;7.094;2022-10-16T07:18:54;21.90;57.40
11989;DHT22;6054;50.966;7.094;2022-10-16T07:21:24;22.00;57.50
11989;DHT22;6054;50.966;7.094;2022-10-16T07:23:52;22.00;57.60
11989;DHT22;6054;50.966;7.094;2022-10-16T07:26:20;22.00;57.80
11989;DHT22;6054;50.966;7.094;2022-10-16T07:28:47;22.10;57.60
11989;DHT22;6054;50.966;7.094;2022-10-16T07:31:16;22.10;57.30
11989;DHT22;6054;50.966;7.094;2022-10-16T07:33:44;22.30;58.00
11989;DHT22;6054;50.966;7.094;2022-10-16T07:36:12;22.20;57.80
11989;DHT22;6054;50.966;7.094;2022-10-16T07:38:39;22.20;57.60
11989;DHT22;6054;50.966;7.094;2022-10-16T07:41:10;22.30;57.30
11989;DHT22;6054;50.966;7.094;2022-10-16T07:43:39;22.30;57.80
11989;DHT22;6054;50.966;7.094;2022-10-16T07:46:06;22.60;57.90
11989;DHT22;6054;50.966;7.094;2022-10-16T07:48:34;22.70;57.50
11989;DHT22;6054;50.966;7.094;2022-10-16T07:51:02;22.40;57.70
11989;DHT22;6054;50.966;7.094;2022-10-16T07:53:29;22.40;58.40
11989;DHT22;6054;50.966;7.094;2022-10-16T07:55:57;22.70;57.60
11989;DHT22;6054;50.966;7.094;2022-10-16T07:58:25;22.40;57.70
11989;DHT22;6054;50.966;7.094;2022-10-16T08:00:53;22.40;57.10
11989;DHT22;6054;50.966;7.094;2022-10-16T08:03:19;22.50;57.30
11989;DHT22;6054;50.966;7.094;2022-10-16T08:05:46;22.40;57.30
11989;DHT22;6054;50.966;7.094;2022-10-16T08:08:14;22.60;57.60
11989;DHT22;6054;50.966;7.094;2022-10-16T08:10:41;22.60;58.00
11989;DHT22;6054;50.966;7.094;2022-10-16T08:13:08;22.60;57.50
11989;DHT22;6054;50.966;7.094;2022-10-16T08:18:05;22.70;58.00
11989;DHT22;6054;50.966;7.094;2022-10-16T08:20:33;22.70;57.20
11989;DHT22;6054;50.966;7.094;2022-10-16T08:23:00;22.70;57.40
11989;DHT22;6054;50.966;7.094;2022-10-16T08:25:27;22.80;57.80
11989;DHT22;6054;50.966;7.094;2022-10-16T08:27:54;22.90;57.00
11989;DHT22;6054;50.966;7.094;2022-10-16T08:30:22;22.90;57.30
11989;DHT22;6054;50.966;7.094;2022-10-16T08:32:50;23.00;57.70
11989;DHT22;6054;50.966;7.094;2022-10-16T08:35:18;23.10;57.60
11989;DHT22;6054;50.966;7.094;2022-10-16T08:37:45;23.30;56.00
11989;DHT22;6054;50.966;7.094;2022-10-16T08:40:17;23.40;56.30
11989;DHT22;6054;50.966;7.094;2022-10-16T08:43:04;23.30;57.40
11989;DHT22;6054;50.966;7.094;2022-10-16T08:45:38;23.40;57.30
11989;DHT22;6054;50.966;7.094;2022-10-16T08:48:17;23.60;57.30
11989;DHT22;6054;50.966;7.094;2022-10-16T08:50:48;23.80;57.50
11989;DHT22;6054;50.966;7.094;2022-10-16T08:53:19;23.70;56.90
11989;DHT22;6054;50.966;7.094;2022-10-16T08:55:50;23.80;56.60
11989;DHT22;6054;50.966;7.094;2022-10-16T08:58:19;23.90;56.30
11989;DHT22;6054;50.966;7.094;2022-10-16T09:00:47;23.90;56.30
11989;DHT22;6054;50.966;7.094;2022-10-16T09:03:27;24.00;56.00
11989;DHT22;6054;50.966;7.094;2022-10-16T09:06:26;24.00;56.00
11989;DHT22;6054;50.966;7.094;2022-10-16T09:09:11;24.20;55.90
11989;DHT22;6054;50.966;7.094;2022-10-16T09:11:46;24.20;55.70
11989;DHT22;6054;50.966;7.094;2022-10-16T09:14:44;24.30;55.60
11989;DHT22;6054;50.966;7.094;2022-10-16T09:17:24;24.40;55.00
11989;DHT22;6054;50.966;7.094;2022-10-16T09:19:56;24.60;55.40
11989;DHT22;6054;50.966;7.094;2022-10-16T09:22:31;24.50;54.40
11989;DHT22;6054;50.966;7.094;2022-10-16T09:25:00;24.60;53.90
11989;DHT22;6054;50.966;7.094;2022-10-16T09:27:27;24.70;53.90
11989;DHT22;6054;50.966;7.094;2022-10-16T09:29:54;24.70;53.10
11989;DHT22;6054;50.966;7.094;2022-10-16T09:32:22;25.10;52.30
11989;DHT22;6054;50.966;7.094;2022-10-16T09:34:52;24.90;52.30
11989;DHT22;6054;50.966;7.094;2022-10-16T09:37:23;24.90;52.20
11989;DHT22;6054;50.966;7.094;2022-10-16T09:39:53;25.00;51.60
11989;DHT22;6054;50.966;7.094;2022-10-16T09:42:21;25.10;51.10
11989;DHT22;6054;50.966;7.094;2022-10-16T09:44:50;25.40;51.00
11989;DHT22;6054;50.966;7.094;2022-10-16T09:47:19;25.30;50.80
11989;DHT22;6054;50.966;7.094;2022-10-16T09:49:51;25.40;50.50
11989;DHT22;6054;50.966;7.094;2022-10-16T09:52:19;25.60;50.60
11989;DHT22;6054;50.966;7.094;2022-10-16T09:54:51;25.60;50.10
11989;DHT22;6054;50.966;7.094;2022-10-16T09:57:19;25.60;50.20
11989;DHT22;6054;50.966;7.094;2022-10-16T09:59:48;25.90;50.10
11989;DHT22;6054;50.966;7.094;2022-10-16T10:02:16;26.00;49.60
11989;DHT22;6054;50.966;7.094;2022-10-16T10:04:49;25.90;49.20
11989;DHT22;6054;50.966;7.094;2022-10-16T10:07:19;25.90;48.70
11989;DHT22;6054;50.966;7.094;2022-10-16T10:09:46;26.10;49.00
11989;DHT22;6054;50.966;7.094;2022-10-16T10:12:20;26.20;49.00
11989;DHT22;6054;50.966;7.094;2022-10-16T10:14:48;26.20;48.30
11989;DHT22;6054;50.966;7.094;2022-10-16T10:17:18;26.30;47.80
11989;DHT22;6054;50.966;7.094;2022-10-16T10:19:48;26.40;47.20
11989;DHT22;6054;50.966;7.094;2022-10-16T10:22:30;26.30;47.50
11989;DHT22;6054;50.966;7.094;2022-10-16T10:25:23;26.30;47.30
11989;DHT22;6054;50.966;7.094;2022-10-16T10:28:17;26.40;47.40
11989;DHT22;6054;50.966;7.094;2022-10-16T10:30:50;26.40;46.50
11989;DHT22;6054;50.966;7.094;2022-10-16T10:33:27;26.40;46.50
11989;DHT22;6054;50.966;7.094;2022-10-16T10:36:01;26.50;46.60
11989;DHT22;6054;50.966;7.094;2022-10-16T10:38:41;26.50;46.10
11989;DHT22;6054;50.966;7.094;2022-10-16T10:41:43;26.60;45.50
11989;DHT22;6054;50.966;7.094;2022-10-16T10:44:26;26.60;45.10
11989;DHT22;6054;50.966;7.094;2022-10-16T10:46:57;26.50;44.90
11989;DHT22;6054;50.966;7.094;2022-10-16T10:49:44;26.50;44.70
11989;DHT22;6054;50.966;7.094;2022-10-16T10:52:30;26.40;44.40
11989;DHT22;6054;50.966;7.094;2022-10-16T10:55:10;26.40;44.80
11989;DHT22;6054;50.966;7.094;2022-10-16T10:57:51;26.40;44.70
11989;DHT22;6054;50.966;7.094;2022-10-16T11:00:28;26.30;44.60
11989;DHT22;6054;50.966;7.094;2022-10-16T11:03:04;26.50;44.70
11989;DHT22;6054;50.966;7.094;2022-10-16T11:05:43;26.60;44.70
11989;DHT22;6054;50.966;7.094;2022-10-16T11:08:15;26.50;44.90
11989;DHT22;6054;50.966;7.094;2022-10-16T11:10:48;26.60;44.90
11989;DHT22;6054;50.966;7.094;2022-10-16T11:13:30;26.70;45.30
11989;DHT22;6054;50.966;7.094;2022-10-16T11:16:03;26.70;45.00
11989;DHT22;6054;50.966;7.094;2022-10-16T11:18:41;26.80;45.00
11989;DHT22;6054;50.966;7.094;2022-10-16T11:21:13;27.00;44.70
11989;DHT22;6054;50.966;7.094;2022-10-16T11:23:43;26.80;44.00
11989;DHT22;6054;50.966;7.094;2022-10-16T11:26:17;26.80;43.80
11989;DHT22;6054;50.966;7.094;2022-10-16T11:28:47;26.90;43.40
11989;DHT22;6054;50.966;7.094;2022-10-16T11:31:21;27.00;43.70
11989;DHT22;6054;50.966;7.094;2022-10-16T11:33:53;26.90;43.80
11989;DHT22;6054;50.966;7.094;2022-10-16T11:36:25;27.00;44.30
11989;DHT22;6054;50.966;7.094;2022-10-16T11:38:57;26.90;44.80
11989;DHT22;6054;50.966;7.094;2022-10-16T11:41:29;26.90;45.10
11989;DHT22;6054;50.966;7.094;2022-10-16T11:44:09;26.90;44.50
11989;DHT22;6054;50.966;7.094;2022-10-16T11:46:46;27.00;44.50
11989;DHT22;6054;50.966;7.094;2022-10-16T11:49:16;27.00;43.90
11989;DHT22;6054;50.966;7.094;2022-10-16T11:51:50;27.10;43.40
11989;DHT22;6054;50.966;7.094;2022-10-16T11:54:26;27.30;43.30
11989;DHT22;6054;50.966;7.094;2022-10-16T11:56:59;27.10;42.90
11989;DHT22;6054;50.966;7.094;2022-10-16T11:59:31;27.20;42.70
11989;DHT22;6054;50.966;7.094;2022-10-16T12:02:28;27.30;42.80
11989;DHT22;6054;50.966;7.094;2022-10-16T12:05:06;27.30;43.20
11989;DHT22;6054;50.966;7.094;2022-10-16T12:07:43;27.40;43.50
11989;DHT22;6054;50.966;7.094;2022-10-16T12:10:20;27.30;43.40
11989;DHT22;6054;50.966;7.094;2022-10-16T12:12:47;27.30;43.10
11989;DHT22;6054;50.966;7.094;2022-10-16T12:15:21;27.40;42.70
11989;DHT22;6054;50.966;7.094;2022-10-16T12:17:51;27.30;42.60
11989;DHT22;6054;50.966;7.094;2022-10-16T12:20:22;27.40;42.70
11989;DHT22;6054;50.966;7.094;2022-10-16T12:22:53;27.40;41.90
11989;DHT22;6054;50.966;7.094;2022-10-16T12:25:24;27.30;42.00
11989;DHT22;6054;50.966;7.094;2022-10-16T12:27:55;27.40;41.70
11989;DHT22;6054;50.966;7.094;2022-10-16T12:30:25;27.30;41.60
11989;DHT22;6054;50.966;7.094;2022-10-16T12:32:58;27.40;42.80
11989;DHT22;6054;50.966;7.094;2022-10-16T12:35:29;27.40;42.50
11989;DHT22;6054;50.966;7.094;2022-10-16T12:38:06;27.50;41.90
11989;DHT22;6054;50.966;7.094;2022-10-16T12:40:36;27.30;41.60
11989;DHT22;6054;50.966;7.094;2022-10-16T12:43:26;27.30;42.50
11989;DHT22;6054;50.966;7.094;2022-10-16T12:46:05;27.30;43.40
11989;DHT22;6054;50.966;7.094;2022-10-16T12:48:34;27.40;43.40
11989;DHT22;6054;50.966;7.094;2022-10-16T12:51:10;27.40;42.50
11989;DHT22;6054;50.966;7.094;2022-10-16T12:53:38;27.50;42.20
11989;DHT22;6054;50.966;7.094;2022-10-16T12:56:18;27.60;41.90
11989;DHT22;6054;50.966;7.094;2022-10-16T12:58:55;27.50;41.40
11989;DHT22;6054;50.966;7.094;2022-10-16T13:01:42;27.70;41.70
11989;DHT22;6054;50.966;7.094;2022-10-16T13:04:41;27.60;41.10
11989;DHT22;6054;50.966;7.094;2022-10-16T13:07:24;27.60;42.10
11989;DHT22;6054;50.966;7.094;2022-10-16T13:10:03;27.60;42.20
11989;DHT22;6054;50.966;7.094;2022-10-16T13:12:51;27.60;42.30
11989;DHT22;6054;50.966;7.094;2022-10-16T13:15:29;27.60;41.90
11989;DHT22;6054;50.966;7.094;2022-10-16T13:18:06;27.60;42.80
11989;DHT22;6054;50.966;7.094;2022-10-16T13:20:56;27.60;42.50
11989;DHT22;6054;50.966;7.094;2022-10-16T13:23:31;27.60;42.20
11989;DHT22;6054;50.966;7.094;2022-10-16T13:26:09;27.60;41.80
11989;DHT22;6054;50.966;7.094;2022-10-16T13:28:39;27.60;42.30
11989;DHT22;6054;50.966;7.094;2022-10-16T13:31:13;27.60;41.70
11989;DHT22;6054;50.966;7.094;2022-10-16T13:33:43;27.60;42.20
11989;DHT22;6054;50.966;7.094;2022-10-16T13:36:26;27.60;41.90
11989;DHT22;6054;50.966;7.094;2022-10-16T13:39:11;27.60;42.10
11989;DHT22;6054;50.966;7.094;2022-10-16T13:41:38;27.50;42.40
11989;DHT22;6054;50.966;7.094;2022-10-16T13:44:12;27.50;40.50
11989;DHT22;6054;50.966;7.094;2022-10-16T13:46:40;27.70;42.60
11989;DHT22;6054;50.966;7.094;2022-10-16T13:49:13;27.70;41.30
11989;DHT22;6054;50.966;7.094;2022-10-16T13:51:53;27.70;42.90
11989;DHT22;6054;50.966;7.094;2022-10-16T13:54:20;27.60;42.80
11989;DHT22;6054;50.966;7.094;2022-10-16T13:56:46;27.70;42.10
11989;DHT22;6054;50.966;7.094;2022-10-16T13:59:23;27.50;42.50
11989;DHT22;6054;50.966;7.094;2022-10-16T14:01:52;27.60;42.80
11989;DHT22;6054;50.966;7.094;2022-10-16T14:04:20;27.50;42.70
11989;DHT22;6054;50.966;7.094;2022-10-16T14:06:50;27.60;42.80
11989;DHT22;6054;50.966;7.094;2022-10-16T14:09:23;27.50;43.00
11989;DHT22;6054;50.966;7.094;2022-10-16T14:11:53;27.60;43.40
11989;DHT22;6054;50.966;7.094;2022-10-16T14:14:21;27.50;43.10
11989;DHT22;6054;50.966;7.094;2022-10-16T14:16:49;27.60;42.60
11989;DHT22;6054;50.966;7.094;2022-10-16T14:19:20;27.60;43.20
11989;DHT22;6054;50.966;7.094;2022-10-16T14:21:49;27.50;43.50
11989;DHT22;6054;50.966;7.094;2022-10-16T14:24:26;27.60;43.90
11989;DHT22;6054;50.966;7.094;2022-10-16T14:26:53;27.50;44.10
11989;DHT22;6054;50.966;7.094;2022-10-16T14:29:23;27.60;44.30
11989;DHT22;6054;50.966;7.094;2022-10-16T14:31:57;27.50;44.20
11989;DHT22;6054;50.966;7.094;2022-10-16T14:34:30;27.50;44.20
11989;DHT22;6054;50.966;7.094;2022-10-16T14:37:01;27.50;44.30
11989;DHT22;6054;50.966;7.094;2022-10-16T14:39:33;27.70;44.70
11989;DHT22;6054;50.966;7.094;2022-10-16T14:42:00;27.50;44.50
11989;DHT22;6054;50.966;7.094;2022-10-16T14:44:31;27.50;44.40
11989;DHT22;6054;50.966;7.094;2022-10-16T14:47:05;27.50;45.60
11989;DHT22;6054;50.966;7.094;2022-10-16T14:49:33;27.70;45.20
11989;DHT22;6054;50.966;7.094;2022-10-16T14:52:01;27.50;45.00
11989;DHT22;6054;50.966;7.094;2022-10-16T14:54:31;27.50;45.40
11989;DHT22;6054;50.966;7.094;2022-10-16T14:56:58;27.50;45.30
11989;DHT22;6054;50.966;7.094;2022-10-16T14:59:36;27.50;45.40
11989;DHT22;6054;50.966;7.094;2022-10-16T15:02:18;27.50;45.50
11989;DHT22;6054;50.966;7.094;2022-10-16T15:04:45;27.40;45.70
11989;DHT22;6054;50.966;7.094;2022-10-16T15:07:13;27.40;45.50
11989;DHT22;6054;50.966;7.094;2022-10-16T15:09:40;27.40;45.50
11989;DHT22;6054;50.966;7.094;2022-10-16T15:12:06;27.40;45.60
11989;DHT22;6054;50.966;7.094;2022-10-16T15:14:33;27.50;45.80
11989;DHT22;6054;50.966;7.094;2022-10-16T15:17:00;27.40;46.00
11989;DHT22;6054;50.966;7.094;2022-10-16T15:19:27;27.40;46.00
11989;DHT22;6054;50.966;7.094;2022-10-16T15:21:54;27.40;46.00
11989;DHT22;6054;50.966;7.094;2022-10-16T15:24:22;27.40;46.00
11989;DHT22;6054;50.966;7.094;2022-10-16T15:26:48;27.60;46.20
11989;DHT22;6054;50.966;7.094;2022-10-16T15:29:15;27.60;46.00
11989;DHT22;6054;50.966;7.094;2022-10-16T15:31:42;27.60;45.90
11989;DHT22;6054;50.966;7.094;2022-10-16T15:34:09;27.40;46.20
11989;DHT22;6054;50.966;7.094;2022-10-16T15:36:37;27.40;47.60
11989;DHT22;6054;50.966;7.094;2022-10-16T15:39:05;27.60;46.90
11989;DHT22;6054;50.966;7.094;2022-10-16T15:41:33;27.40;47.40
11989;DHT22;6054;50.966;7.094;2022-10-16T15:44:00;27.40;47.40
11989;DHT22;6054;50.966;7.094;2022-10-16T15:46:26;27.40;47.50
11989;DHT22;6054;50.966;7.094;2022-10-16T15:48:56;27.40;48.00
11989;DHT22;6054;50.966;7.094;2022-10-16T15:51:24;27.40;48.50
11989;DHT22;6054;50.966;7.094;2022-10-16T15:53:52;27.40;48.30
11989;DHT22;6054;50.966;7.094;2022-10-16T15:56:19;27.30;47.80
11989;DHT22;6054;50.966;7.094;2022-10-16T15:58:48;27.40;47.80
11989;DHT22;6054;50.966;7.094;2022-10-16T16:01:15;27.50;48.00
11989;DHT22;6054;50.966;7.094;2022-10-16T16:03:42;27.40;48.00
11989;DHT22;6054;50.966;7.094;2022-10-16T16:06:11;27.30;48.00
11989;DHT22;6054;50.966;7.094;2022-10-16T16:08:38;27.20;48.20